sensor_id;sensor_type;location;lat;lon;timestamp;pressure;altitude;pressure_sealevel;temperature;humidity
21520;BME280;10921;53.614;9.882;2023-03-22T00:02:06;100682.19;;;10.77;90.94
21520;BME280;10921;53.614;9.882;2023-03-22T00:04:33;100720.97;;;11.09;90.81
21520;BME280;10921;53.614;9.882;2023-03-22T00:07:00;100720.00;;;11.10;90.57
21520;BME280;10921;53.614;9.882;2023-03-22T00:09:26;100706.22;;;11.14;90.46
21520;BME280;10921;53.614;9.882;2023-03-22T00:11:53;100695.41;;;11.06;90.20
21520;BME280;10921;53.614;9.882;2023-03-22T00:14:19;100678.59;;;10.96;89.93
21520;BME280;10921;53.614;9.882;2023-03-22T00:16:46;100672.97;;;10.99;89.82
21520;BME280;10921;53.614;9.882;2023-03-22T00:19:15;100691.66;;;11.26;89.57
21520;BME280;10921;53.614;9.882;2023-03-22T00:21:43;100686.88;;;11.30;89.29
21520;BME280;10921;53.614;9.882;2023-03-22T00:24:09;100610.91;;;10.87;88.73
21520;BME280;10921;53.614;9.882;2023-03-22T00:26:36;100674.78;;;11.26;88.84
21520;BME280;10921;53.614;9.882;2023-03-22T00:29:03;100684.41;;;11.37;88.67
21520;BME280;10921;53.614;9.882;2023-03-22T00:31:32;100655.84;;;11.19;88.68
21520;BME280;10921;53.614;9.882;2023-03-22T00:33:59;100660.75;;;11.24;88.08
21520;BME280;10921;53.614;9.882;2023-03-22T00:36:25;100677.38;;;11.36;88.09
21520;BME280;10921;53.614;9.882;2023-03-22T00:38:52;100609.94;;;10.88;88.32
21520;BME280;10921;53.614;9.882;2023-03-22T00:41:22;100686.31;;;11.26;88.73
21520;BME280;10921;53.614;9.882;2023-03-22T00:43:50;100677.59;;;11.24;88.91
21520;BME280;10921;53.614;9.882;2023-03-22T00:46:18;100675.94;;;11.23;89.17
21520;BME280;10921;53.614;9.882;2023-03-22T00:48:46;100681.97;;;11.25;89.07
21520;BME280;10921;53.614;9.882;2023-03-22T00:51:13;100676.63;;;11.25;89.46
21520;BME280;10921;53.614;9.882;2023-03-22T00:53:40;100606.56;;;10.86;89.29
21520;BME280;10921;53.614;9.882;2023-03-22T00:56:10;100673.34;;;11.32;89.21
21520;BME280;10921;53.614;9.882;2023-03-22T00:58:40;100594.91;;;10.87;88.75
21520;BME280;10921;53.614;9.882;2023-03-22T01:01:07;100638.81;;;11.20;88.76
21520;BME280;10921;53.614;9.882;2023-03-22T01:03:34;100615.84;;;11.10;88.67
21520;BME280;10921;53.614;9.882;2023-03-22T01:06:01;100675.81;;;11.43;88.38
21520;BME280;10921;53.614;9.882;2023-03-22T01:08:27;100657.94;;;11.43;88.29
21520;BME280;10921;53.614;9.882;2023-03-22T01:10:59;100658.66;;;11.45;88.12
21520;BME280;10921;53.614;9.882;2023-03-22T01:13:26;100658.31;;;11.48;87.87
21520;BME280;10921;53.614;9.882;2023-03-22T01:15:53;100620.09;;;11.30;87.75
21520;BME280;10921;53.614;9.882;2023-03-22T01:18:21;100594.66;;;11.26;87.55
21520;BME280;10921;53.614;9.882;2023-03-22T01:20:47;100634.34;;;11.56;87.33
21520;BME280;10921;53.614;9.882;2023-03-22T01:23:14;100649.09;;;11.60;87.30
21520;BME280;10921;53.614;9.882;2023-03-22T01:25:40;100609.03;;;11.43;87.33
21520;BME280;10921;53.614;9.882;2023-03-22T01:28:07;100639.91;;;11.63;87.14
21520;BME280;10921;53.614;9.882;2023-03-22T01:30:34;100631.91;;;11.63;87.13
21520;BME280;10921;53.614;9.882;2023-03-22T01:33:00;100568.09;;;11.24;86.68
21520;BME280;10921;53.614;9.882;2023-03-22T01:35:27;100630.47;;;11.69;86.81
21520;BME280;10921;53.614;9.882;2023-03-22T01:37:54;100614.19;;;11.62;86.76
21520;BME280;10921;53.614;9.882;2023-03-22T01:40:20;100633.81;;;11.71;86.81
21520;BME280;10921;53.614;9.882;2023-03-22T01:42:47;100623.97;;;11.71;86.57
21520;BME280;10921;53.614;9.882;2023-03-22T01:47:43;100613.81;;;11.75;86.50
21520;BME280;10921;53.614;9.882;2023-03-22T01:50:11;100590.75;;;11.56;86.25
21520;BME280;10921;53.614;9.882;2023-03-22T01:52:39;100609.63;;;11.72;86.57
21520;BME280;10921;53.614;9.882;2023-03-22T01:55:06;100545.88;;;11.42;86.36
21520;BME280;10921;53.614;9.882;2023-03-22T01:57:37;100600.59;;;11.73;86.38
21520;BME280;10921;53.614;9.882;2023-03-22T02:00:07;100556.28;;;11.45;86.19
21520;BME280;10921;53.614;9.882;2023-03-22T02:02:36;100585.63;;;11.62;86.47
21520;BME280;10921;53.614;9.882;2023-03-22T02:05:02;100549.59;;;11.49;86.06
21520;BME280;10921;53.614;9.882;2023-03-22T02:07:30;100571.22;;;11.55;86.31
21520;BME280;10921;53.614;9.882;2023-03-22T02:09:58;100552.66;;;11.54;86.09
21520;BME280;10921;53.614;9.882;2023-03-22T02:12:55;100590.69;;;11.83;86.86
21520;BME280;10921;53.614;9.882;2023-03-22T02:15:49;100576.94;;;11.78;86.29
21520;BME280;10921;53.614;9.882;2023-03-22T02:18:43;100576.94;;;11.78;85.54
21520;BME280;10921;53.614;9.882;2023-03-22T02:21:20;100578.22;;;11.74;85.69
21520;BME280;10921;53.614;9.882;2023-03-22T02:26:42;100568.97;;;11.69;86.03
21520;BME280;10921;53.614;9.882;2023-03-22T02:42:58;100551.81;;;11.71;86.48
21520;BME280;10921;53.614;9.882;2023-03-22T02:45:33;100546.31;;;11.73;86.34
21520;BME280;10921;53.614;9.882;2023-03-22T02:48:11;100529.31;;;11.56;86.02
21520;BME280;10921;53.614;9.882;2023-03-22T02:50:44;100557.00;;;11.73;85.92
21520;BME280;10921;53.614;9.882;2023-03-22T02:53:23;100448.53;;;11.18;86.27
21520;BME280;10921;53.614;9.882;2023-03-22T02:56:10;100552.72;;;11.80;85.88
21520;BME280;10921;53.614;9.882;2023-03-22T02:58:42;100485.63;;;11.47;85.63
21520;BME280;10921;53.614;9.882;2023-03-22T03:01:18;100523.41;;;11.70;85.86
21520;BME280;10921;53.614;9.882;2023-03-22T03:03:48;100511.78;;;11.61;85.63
21520;BME280;10921;53.614;9.882;2023-03-22T03:06:18;100465.66;;;11.34;85.19
21520;BME280;10921;53.614;9.882;2023-03-22T03:08:47;100550.88;;;11.80;84.98
21520;BME280;10921;53.614;9.882;2023-03-22T03:11:16;100538.22;;;11.82;85.01
21520;BME280;10921;53.614;9.882;2023-03-22T03:13:45;100510.88;;;11.71;85.17
21520;BME280;10921;53.614;9.882;2023-03-22T03:16:16;100451.16;;;11.36;84.92
21520;BME280;10921;53.614;9.882;2023-03-22T03:18:58;100532.09;;;11.90;85.00
21520;BME280;10921;53.614;9.882;2023-03-22T03:24:59;100488.44;;;11.63;84.52
21520;BME280;10921;53.614;9.882;2023-03-22T03:27:39;100533.28;;;11.95;84.51
21520;BME280;10921;53.614;9.882;2023-03-22T03:30:23;100541.97;;;11.97;84.00
21520;BME280;10921;53.614;9.882;2023-03-22T03:33:05;100526.78;;;11.98;83.97
21520;BME280;10921;53.614;9.882;2023-03-22T03:35:42;100524.41;;;11.95;84.07
21520;BME280;10921;53.614;9.882;2023-03-22T03:38:15;100523.09;;;11.99;83.52
21520;BME280;10921;53.614;9.882;2023-03-22T03:40:46;100523.56;;;11.94;83.52
21520;BME280;10921;53.614;9.882;2023-03-22T03:43:16;100497.94;;;11.84;83.45
21520;BME280;10921;53.614;9.882;2023-03-22T03:45:43;100465.34;;;11.54;83.52
21520;BME280;10921;53.614;9.882;2023-03-22T03:48:18;100503.44;;;11.82;83.70
21520;BME280;10921;53.614;9.882;2023-03-22T03:50:47;100505.66;;;11.87;83.60
21520;BME280;10921;53.614;9.882;2023-03-22T03:53:16;100482.47;;;11.70;83.53
21520;BME280;10921;53.614;9.882;2023-03-22T03:55:42;100491.00;;;11.73;83.49
21520;BME280;10921;53.614;9.882;2023-03-22T03:58:09;100519.03;;;11.87;83.49
21520;BME280;10921;53.614;9.882;2023-03-22T04:00:36;100502.38;;;11.75;83.88
21520;BME280;10921;53.614;9.882;2023-03-22T04:03:04;100487.94;;;11.60;83.44
21520;BME280;10921;53.614;9.882;2023-03-22T04:05:31;100432.00;;;11.41;83.41
21520;BME280;10921;53.614;9.882;2023-03-22T04:07:58;100458.00;;;11.56;83.23
21520;BME280;10921;53.614;9.882;2023-03-22T04:10:25;100495.59;;;11.81;83.32
21520;BME280;10921;53.614;9.882;2023-03-22T04:12:51;100506.13;;;11.82;83.24
21520;BME280;10921;53.614;9.882;2023-03-22T04:15:18;100470.72;;;11.62;83.15
21520;BME280;10921;53.614;9.882;2023-03-22T04:17:44;100485.81;;;11.72;83.33
21520;BME280;10921;53.614;9.882;2023-03-22T04:20:12;100464.50;;;11.54;83.07
21520;BME280;10921;53.614;9.882;2023-03-22T04:22:40;100514.53;;;11.87;83.06
21520;BME280;10921;53.614;9.882;2023-03-22T04:25:09;100463.91;;;11.68;83.11
21520;BME280;10921;53.614;9.882;2023-03-22T04:27:41;100490.25;;;11.81;83.05
21520;BME280;10921;53.614;9.882;2023-03-22T04:30:11;100500.66;;;11.92;82.99
21520;BME280;10921;53.614;9.882;2023-03-22T04:32:47;100500.50;;;11.93;82.79
21520;BME280;10921;53.614;9.882;2023-03-22T04:35:15;100502.69;;;11.90;82.95
21520;BME280;10921;53.614;9.882;2023-03-22T04:37:42;100458.69;;;11.58;82.80
21520;BME280;10921;53.614;9.882;2023-03-22T04:40:09;100407.28;;;11.39;82.66
21520;BME280;10921;53.614;9.882;2023-03-22T04:42:43;100421.84;;;11.44;82.44
21520;BME280;10921;53.614;9.882;2023-03-22T04:45:11;100381.25;;;11.15;82.62
21520;BME280;10921;53.614;9.882;2023-03-22T04:47:38;100438.91;;;11.51;82.59
21520;BME280;10921;53.614;9.882;2023-03-22T04:50:06;100463.88;;;11.60;82.73
21520;BME280;10921;53.614;9.882;2023-03-22T04:52:33;100475.50;;;11.77;82.56
21520;BME280;10921;53.614;9.882;2023-03-22T04:54:59;100476.41;;;11.85;82.48
21520;BME280;10921;53.614;9.882;2023-03-22T04:57:26;100473.91;;;11.66;82.33
21520;BME280;10921;53.614;9.882;2023-03-22T04:59:52;100488.09;;;11.84;82.45
21520;BME280;10921;53.614;9.882;2023-03-22T05:02:19;100451.50;;;11.59;82.44
21520;BME280;10921;53.614;9.882;2023-03-22T05:04:46;100486.56;;;11.82;82.35
21520;BME280;10921;53.614;9.882;2023-03-22T05:07:12;100478.03;;;11.78;82.29
21520;BME280;10921;53.614;9.882;2023-03-22T05:09:39;100472.84;;;11.77;82.19
21520;BME280;10921;53.614;9.882;2023-03-22T05:12:05;100471.69;;;11.79;82.34
21520;BME280;10921;53.614;9.882;2023-03-22T05:14:32;100431.38;;;11.47;82.49
21520;BME280;10921;53.614;9.882;2023-03-22T05:16:58;100484.22;;;11.79;82.55
21520;BME280;10921;53.614;9.882;2023-03-22T05:19:25;100428.38;;;11.50;82.45
21520;BME280;10921;53.614;9.882;2023-03-22T05:21:52;100452.69;;;11.64;82.19
21520;BME280;10921;53.614;9.882;2023-03-22T05:24:24;100446.16;;;11.59;82.16
21520;BME280;10921;53.614;9.882;2023-03-22T05:26:50;100447.78;;;11.52;82.10
21520;BME280;10921;53.614;9.882;2023-03-22T05:29:19;100457.88;;;11.66;81.99
21520;BME280;10921;53.614;9.882;2023-03-22T05:31:47;100435.09;;;11.54;81.84
21520;BME280;10921;53.614;9.882;2023-03-22T05:34:13;100480.38;;;11.81;81.76
21520;BME280;10921;53.614;9.882;2023-03-22T05:36:40;100442.50;;;11.60;81.77
21520;BME280;10921;53.614;9.882;2023-03-22T05:39:06;100480.22;;;11.83;81.54
21520;BME280;10921;53.614;9.882;2023-03-22T05:41:33;100413.47;;;11.39;81.38
21520;BME280;10921;53.614;9.882;2023-03-22T05:44:02;100467.50;;;11.77;81.30
21520;BME280;10921;53.614;9.882;2023-03-22T05:46:29;100432.00;;;11.67;81.08
21520;BME280;10921;53.614;9.882;2023-03-22T05:48:56;100478.63;;;11.90;81.02
21520;BME280;10921;53.614;9.882;2023-03-22T05:51:23;100444.47;;;11.76;80.75
21520;BME280;10921;53.614;9.882;2023-03-22T05:53:51;100482.63;;;11.94;80.63
21520;BME280;10921;53.614;9.882;2023-03-22T05:56:19;100466.28;;;11.97;80.56
21520;BME280;10921;53.614;9.882;2023-03-22T05:58:50;100443.97;;;11.80;80.55
21520;BME280;10921;53.614;9.882;2023-03-22T06:01:17;100490.88;;;12.09;80.47
21520;BME280;10921;53.614;9.882;2023-03-22T06:03:47;100454.72;;;11.88;80.52
21520;BME280;10921;53.614;9.882;2023-03-22T06:06:14;100409.25;;;11.62;80.40
21520;BME280;10921;53.614;9.882;2023-03-22T06:08:41;100393.03;;;11.56;80.44
21520;BME280;10921;53.614;9.882;2023-03-22T06:11:08;100482.41;;;12.13;80.30
21520;BME280;10921;53.614;9.882;2023-03-22T06:13:36;100480.88;;;12.11;80.28
21520;BME280;10921;53.614;9.882;2023-03-22T06:16:04;100434.00;;;11.90;80.19
21520;BME280;10921;53.614;9.882;2023-03-22T06:18:31;100437.00;;;11.87;80.32
21520;BME280;10921;53.614;9.882;2023-03-22T06:20:58;100473.22;;;12.16;79.97
21520;BME280;10921;53.614;9.882;2023-03-22T06:23:25;100423.31;;;11.90;80.02
21520;BME280;10921;53.614;9.882;2023-03-22T06:25:52;100461.00;;;12.13;80.06
21520;BME280;10921;53.614;9.882;2023-03-22T06:28:18;100377.41;;;11.69;79.84
21520;BME280;10921;53.614;9.882;2023-03-22T06:30:45;100424.69;;;12.03;79.61
21520;BME280;10921;53.614;9.882;2023-03-22T06:33:11;100440.81;;;12.19;79.50
21520;BME280;10921;53.614;9.882;2023-03-22T06:35:38;100479.69;;;12.47;79.13
21520;BME280;10921;53.614;9.882;2023-03-22T06:38:05;100445.84;;;12.30;78.60
21520;BME280;10921;53.614;9.882;2023-03-22T06:40:31;100426.75;;;12.25;78.08
21520;BME280;10921;53.614;9.882;2023-03-22T06:42:58;100416.59;;;12.28;77.79
21520;BME280;10921;53.614;9.882;2023-03-22T06:45:29;100443.38;;;12.45;77.68
21520;BME280;10921;53.614;9.882;2023-03-22T06:47:58;100435.03;;;12.48;77.01
21520;BME280;10921;53.614;9.882;2023-03-22T06:50:27;100451.97;;;12.64;77.29
21520;BME280;10921;53.614;9.882;2023-03-22T06:52:54;100476.94;;;12.81;77.08
21520;BME280;10921;53.614;9.882;2023-03-22T06:55:20;100477.59;;;12.83;76.64
21520;BME280;10921;53.614;9.882;2023-03-22T06:57:47;100481.09;;;12.84;76.37
21520;BME280;10921;53.614;9.882;2023-03-22T07:00:14;100458.31;;;12.72;76.25
21520;BME280;10921;53.614;9.882;2023-03-22T07:02:41;100476.63;;;12.92;76.39
21520;BME280;10921;53.614;9.882;2023-03-22T07:05:08;100431.88;;;12.68;76.12
21520;BME280;10921;53.614;9.882;2023-03-22T07:07:34;100389.72;;;12.46;75.99
21520;BME280;10921;53.614;9.882;2023-03-22T07:10:01;100430.41;;;12.74;75.58
21520;BME280;10921;53.614;9.882;2023-03-22T07:12:27;100426.22;;;12.80;75.79
21520;BME280;10921;53.614;9.882;2023-03-22T07:14:54;100450.16;;;13.06;75.55
21520;BME280;10921;53.614;9.882;2023-03-22T07:17:20;100452.88;;;13.14;75.71
21520;BME280;10921;53.614;9.882;2023-03-22T07:19:47;100457.56;;;13.12;75.30
21520;BME280;10921;53.614;9.882;2023-03-22T07:22:14;100425.09;;;12.98;75.10
21520;BME280;10921;53.614;9.882;2023-03-22T07:24:40;100376.69;;;12.76;75.26
21520;BME280;10921;53.614;9.882;2023-03-22T07:27:21;100399.63;;;12.94;74.80
21520;BME280;10921;53.614;9.882;2023-03-22T07:29:48;100414.19;;;13.16;74.72
21520;BME280;10921;53.614;9.882;2023-03-22T07:32:15;100438.81;;;13.28;74.80
21520;BME280;10921;53.614;9.882;2023-03-22T07:34:41;100452.38;;;13.26;74.48
21520;BME280;10921;53.614;9.882;2023-03-22T07:37:08;100352.94;;;12.81;74.50
21520;BME280;10921;53.614;9.882;2023-03-22T07:39:34;100392.75;;;13.08;74.59
21520;BME280;10921;53.614;9.882;2023-03-22T07:42:02;100443.66;;;13.41;74.98
21520;BME280;10921;53.614;9.882;2023-03-22T07:44:29;100426.59;;;13.42;75.15
21520;BME280;10921;53.614;9.882;2023-03-22T07:46:55;100322.63;;;12.88;74.41
21520;BME280;10921;53.614;9.882;2023-03-22T07:49:22;100391.22;;;13.46;74.14
21520;BME280;10921;53.614;9.882;2023-03-22T07:51:48;100418.47;;;13.66;73.80
21520;BME280;10921;53.614;9.882;2023-03-22T07:54:15;100406.13;;;13.57;73.66
21520;BME280;10921;53.614;9.882;2023-03-22T07:56:58;100407.53;;;13.76;73.41
21520;BME280;10921;53.614;9.882;2023-03-22T07:59:24;100341.34;;;13.37;73.63
21520;BME280;10921;53.614;9.882;2023-03-22T08:01:51;100388.13;;;13.73;73.20
21520;BME280;10921;53.614;9.882;2023-03-22T08:04:17;100319.09;;;13.28;73.78
21520;BME280;10921;53.614;9.882;2023-03-22T08:06:46;100366.69;;;13.65;73.86
21520;BME280;10921;53.614;9.882;2023-03-22T08:09:12;100345.31;;;13.57;73.75
21520;BME280;10921;53.614;9.882;2023-03-22T08:11:39;100329.88;;;13.59;74.08
21520;BME280;10921;53.614;9.882;2023-03-22T08:14:05;100348.72;;;13.82;73.91
21520;BME280;10921;53.614;9.882;2023-03-22T08:16:32;100317.28;;;13.68;73.72
21520;BME280;10921;53.614;9.882;2023-03-22T08:18:59;100314.59;;;13.68;73.47
21520;BME280;10921;53.614;9.882;2023-03-22T08:21:26;100354.69;;;13.92;73.40
21520;BME280;10921;53.614;9.882;2023-03-22T08:23:52;100333.78;;;13.88;73.13
21520;BME280;10921;53.614;9.882;2023-03-22T08:26:19;100298.81;;;13.73;73.35
21520;BME280;10921;53.614;9.882;2023-03-22T08:28:47;100329.38;;;13.95;73.29
21520;BME280;10921;53.614;9.882;2023-03-22T08:31:15;100290.78;;;13.73;73.31
21520;BME280;10921;53.614;9.882;2023-03-22T08:33:43;100349.72;;;14.12;73.33
21520;BME280;10921;53.614;9.882;2023-03-22T08:36:12;100318.59;;;14.03;73.81
21520;BME280;10921;53.614;9.882;2023-03-22T08:38:39;100282.34;;;13.84;73.70
21520;BME280;10921;53.614;9.882;2023-03-22T08:41:07;100349.41;;;14.38;73.26
21520;BME280;10921;53.614;9.882;2023-03-22T08:43:34;100300.50;;;14.28;72.42
21520;BME280;10921;53.614;9.882;2023-03-22T08:46:01;100318.06;;;14.61;71.50
21520;BME280;10921;53.614;9.882;2023-03-22T08:48:27;100261.34;;;14.41;71.20
21520;BME280;10921;53.614;9.882;2023-03-22T08:50:56;100298.94;;;14.79;70.33
21520;BME280;10921;53.614;9.882;2023-03-22T08:53:23;100312.03;;;14.97;69.53
21520;BME280;10921;53.614;9.882;2023-03-22T08:55:49;100295.50;;;14.85;69.47
21520;BME280;10921;53.614;9.882;2023-03-22T08:58:16;100336.44;;;15.25;69.64
21520;BME280;10921;53.614;9.882;2023-03-22T09:00:46;100303.91;;;15.20;68.95
21520;BME280;10921;53.614;9.882;2023-03-22T09:03:15;100289.63;;;15.34;68.40
21520;BME280;10921;53.614;9.882;2023-03-22T09:05:42;100329.72;;;15.58;68.22
21520;BME280;10921;53.614;9.882;2023-03-22T09:08:09;100326.94;;;15.66;67.59
21520;BME280;10921;53.614;9.882;2023-03-22T09:10:47;100238.66;;;15.40;66.91
21520;BME280;10921;53.614;9.882;2023-03-22T09:13:17;100287.56;;;15.80;66.79
21520;BME280;10921;53.614;9.882;2023-03-22T09:15:46;100271.53;;;15.87;65.49
21520;BME280;10921;53.614;9.882;2023-03-22T09:18:13;100266.00;;;15.95;64.40
21520;BME280;10921;53.614;9.882;2023-03-22T09:20:39;100213.75;;;15.82;63.96
21520;BME280;10921;53.614;9.882;2023-03-22T09:23:06;100314.38;;;16.45;63.25
21520;BME280;10921;53.614;9.882;2023-03-22T09:25:33;100249.44;;;16.12;63.71
21520;BME280;10921;53.614;9.882;2023-03-22T09:28:00;100226.50;;;15.95;62.79
21520;BME280;10921;53.614;9.882;2023-03-22T09:30:26;100267.31;;;16.20;62.44
21520;BME280;10921;53.614;9.882;2023-03-22T09:32:53;100295.38;;;16.53;62.81
21520;BME280;10921;53.614;9.882;2023-03-22T09:35:20;100277.91;;;16.43;63.36
21520;BME280;10921;53.614;9.882;2023-03-22T09:37:46;100267.84;;;16.30;62.69
21520;BME280;10921;53.614;9.882;2023-03-22T09:40:17;100218.81;;;16.13;63.11
21520;BME280;10921;53.614;9.882;2023-03-22T09:42:47;100262.56;;;16.43;62.24
21520;BME280;10921;53.614;9.882;2023-03-22T09:45:19;100299.47;;;16.64;62.56
21520;BME280;10921;53.614;9.882;2023-03-22T09:47:51;100222.38;;;16.21;62.17
21520;BME280;10921;53.614;9.882;2023-03-22T09:50:21;100283.78;;;16.53;61.59
21520;BME280;10921;53.614;9.882;2023-03-22T09:52:49;100250.84;;;16.30;61.53
21520;BME280;10921;53.614;9.882;2023-03-22T09:55:35;100256.63;;;16.27;61.78
21520;BME280;10921;53.614;9.882;2023-03-22T10:00:44;100285.25;;;16.56;62.15
21520;BME280;10921;53.614;9.882;2023-03-22T10:03:22;100273.66;;;16.55;62.03
21520;BME280;10921;53.614;9.882;2023-03-22T10:05:59;100260.53;;;16.45;61.55
21520;BME280;10921;53.614;9.882;2023-03-22T10:11:51;100277.00;;;16.57;61.05
21520;BME280;10921;53.614;9.882;2023-03-22T10:14:40;100203.69;;;16.12;60.17
21520;BME280;10921;53.614;9.882;2023-03-22T10:17:11;100225.88;;;16.14;60.30
21520;BME280;10921;53.614;9.882;2023-03-22T10:19:54;100252.97;;;16.34;60.69
21520;BME280;10921;53.614;9.882;2023-03-22T10:22:26;100191.19;;;15.83;59.79
21520;BME280;10921;53.614;9.882;2023-03-22T10:24:59;100150.09;;;15.54;60.20
21520;BME280;10921;53.614;9.882;2023-03-22T10:27:28;100292.13;;;16.37;60.75
21520;BME280;10921;53.614;9.882;2023-03-22T10:32:44;100234.88;;;16.07;60.48
21520;BME280;10921;53.614;9.882;2023-03-22T10:35:23;100285.66;;;16.31;59.66
21520;BME280;10921;53.614;9.882;2023-03-22T10:37:51;100256.94;;;16.17;59.38
21520;BME280;10921;53.614;9.882;2023-03-22T10:40:25;100277.63;;;16.38;59.28
21520;BME280;10921;53.614;9.882;2023-03-22T10:42:59;100243.59;;;16.09;59.45
21520;BME280;10921;53.614;9.882;2023-03-22T10:45:30;100224.72;;;16.02;58.75
21520;BME280;10921;53.614;9.882;2023-03-22T10:48:32;100290.34;;;16.44;58.36
21520;BME280;10921;53.614;9.882;2023-03-22T10:51:00;100264.13;;;16.31;58.51
21520;BME280;10921;53.614;9.882;2023-03-22T10:53:47;100272.31;;;16.44;58.84
21520;BME280;10921;53.614;9.882;2023-03-22T10:56:17;100289.69;;;16.42;58.07
21520;BME280;10921;53.614;9.882;2023-03-22T10:58:46;100211.81;;;15.98;57.93
21520;BME280;10921;53.614;9.882;2023-03-22T11:01:23;100240.34;;;16.13;58.50
21520;BME280;10921;53.614;9.882;2023-03-22T11:03:54;100209.06;;;16.12;58.10
21520;BME280;10921;53.614;9.882;2023-03-22T11:06:29;100285.78;;;16.66;58.96
21520;BME280;10921;53.614;9.882;2023-03-22T11:09:00;100228.13;;;16.39;57.89
21520;BME280;10921;53.614;9.882;2023-03-22T11:14:07;100283.69;;;16.89;57.87
21520;BME280;10921;53.614;9.882;2023-03-22T11:16:55;100295.75;;;16.93;57.31
21520;BME280;10921;53.614;9.882;2023-03-22T11:19:26;100237.78;;;16.48;55.82
21520;BME280;10921;53.614;9.882;2023-03-22T11:21:54;100269.28;;;16.54;55.89
21520;BME280;10921;53.614;9.882;2023-03-22T11:24:24;100296.69;;;16.79;55.79
21520;BME280;10921;53.614;9.882;2023-03-22T11:29:44;100315.56;;;16.79;56.11
21520;BME280;10921;53.614;9.882;2023-03-22T11:32:35;100276.66;;;16.88;55.94
21520;BME280;10921;53.614;9.882;2023-03-22T11:35:22;100209.59;;;16.50;55.40
21520;BME280;10921;53.614;9.882;2023-03-22T11:37:54;100301.28;;;16.85;55.04
21520;BME280;10921;53.614;9.882;2023-03-22T11:40:26;100298.78;;;16.83;55.13
21520;BME280;10921;53.614;9.882;2023-03-22T11:45:37;100253.19;;;16.61;55.44
21520;BME280;10921;53.614;9.882;2023-03-22T11:48:12;100276.59;;;16.81;55.39
21520;BME280;10921;53.614;9.882;2023-03-22T11:50:43;100303.03;;;16.99;54.63
21520;BME280;10921;53.614;9.882;2023-03-22T11:53:14;100261.06;;;16.83;54.45
21520;BME280;10921;53.614;9.882;2023-03-22T11:55:42;100228.38;;;16.65;54.33
21520;BME280;10921;53.614;9.882;2023-03-22T12:01:01;100283.97;;;16.94;54.28
21520;BME280;10921;53.614;9.882;2023-03-22T12:03:31;100248.13;;;16.72;53.50
21520;BME280;10921;53.614;9.882;2023-03-22T12:06:12;100254.34;;;16.73;53.57
21520;BME280;10921;53.614;9.882;2023-03-22T12:08:46;100289.88;;;16.83;54.31
21520;BME280;10921;53.614;9.882;2023-03-22T12:11:26;100279.50;;;16.80;54.21
21520;BME280;10921;53.614;9.882;2023-03-22T12:14:06;100272.44;;;16.79;54.05
21520;BME280;10921;53.614;9.882;2023-03-22T12:16:47;100245.84;;;16.48;53.81
21520;BME280;10921;53.614;9.882;2023-03-22T12:19:35;100260.25;;;16.62;54.44
21520;BME280;10921;53.614;9.882;2023-03-22T12:22:10;100208.84;;;16.35;54.83
21520;BME280;10921;53.614;9.882;2023-03-22T12:24:38;100196.13;;;16.01;54.28
21520;BME280;10921;53.614;9.882;2023-03-22T12:27:16;100192.53;;;16.15;54.42
21520;BME280;10921;53.614;9.882;2023-03-22T12:29:56;100239.75;;;16.39;54.67
21520;BME280;10921;53.614;9.882;2023-03-22T12:32:27;100207.66;;;16.16;54.74
21520;BME280;10921;53.614;9.882;2023-03-22T12:34:55;100220.53;;;16.21;54.67
21520;BME280;10921;53.614;9.882;2023-03-22T12:37:40;100263.06;;;16.53;55.36
21520;BME280;10921;53.614;9.882;2023-03-22T12:40:26;100227.69;;;16.35;55.82
21520;BME280;10921;53.614;9.882;2023-03-22T12:43:01;100234.81;;;16.43;56.58
21520;BME280;10921;53.614;9.882;2023-03-22T12:45:36;100242.44;;;16.39;56.04
21520;BME280;10921;53.614;9.882;2023-03-22T12:48:18;100240.97;;;16.37;56.07
21520;BME280;10921;53.614;9.882;2023-03-22T12:50:52;100271.94;;;16.47;57.93
21520;BME280;10921;53.614;9.882;2023-03-22T12:53:25;100184.16;;;15.82;57.33
21520;BME280;10921;53.614;9.882;2023-03-22T12:55:54;100286.38;;;16.18;58.19
21520;BME280;10921;53.614;9.882;2023-03-22T12:58:23;100284.09;;;16.01;59.46
21520;BME280;10921;53.614;9.882;2023-03-22T13:01:19;100233.25;;;15.70;60.73
21520;BME280;10921;53.614;9.882;2023-03-22T13:03:50;100283.78;;;15.74;61.51
21520;BME280;10921;53.614;9.882;2023-03-22T13:06:33;100294.56;;;15.60;62.45
21520;BME280;10921;53.614;9.882;2023-03-22T13:09:35;100241.72;;;15.08;62.83
21520;BME280;10921;53.614;9.882;2023-03-22T13:12:27;100291.28;;;15.05;64.08
21520;BME280;10921;53.614;9.882;2023-03-22T13:14:57;100296.91;;;14.81;64.62
21520;BME280;10921;53.614;9.882;2023-03-22T13:27:49;100234.66;;;13.94;68.16
21520;BME280;10921;53.614;9.882;2023-03-22T13:30:24;100288.75;;;14.29;69.18
21520;BME280;10921;53.614;9.882;2023-03-22T13:32:53;100288.78;;;14.21;70.35
21520;BME280;10921;53.614;9.882;2023-03-22T13:35:53;100292.78;;;14.25;70.30
21520;BME280;10921;53.614;9.882;2023-03-22T13:38:22;100283.38;;;14.29;69.88
21520;BME280;10921;53.614;9.882;2023-03-22T13:43:27;100282.00;;;14.10;69.91
21520;BME280;10921;53.614;9.882;2023-03-22T13:51:32;100272.94;;;14.11;71.07
21520;BME280;10921;53.614;9.882;2023-03-22T14:04:43;100272.47;;;14.30;69.42
21520;BME280;10921;53.614;9.882;2023-03-22T14:10:10;100239.81;;;14.04;68.87
21520;BME280;10921;53.614;9.882;2023-03-22T14:12:58;100276.44;;;14.42;67.75
21520;BME280;10921;53.614;9.882;2023-03-22T14:15:30;100247.09;;;14.18;66.93
21520;BME280;10921;53.614;9.882;2023-03-22T14:18:01;100275.78;;;14.40;66.92
21520;BME280;10921;53.614;9.882;2023-03-22T14:20:33;100234.50;;;14.19;66.49
21520;BME280;10921;53.614;9.882;2023-03-22T14:23:04;100292.56;;;14.57;66.26